www.nordhorn-wetter.com
Wetterdaten: aktuell Sonntag, 25.07.2021 20:27
Datum Zeit Temp. A. BodenT -5cm Temp +10cm Extra Temp Feuchte A. BlattFeuchte Bod.Feu -5cm Luftdruck Regen Wind Richtung Richtung Sonnenschein ET UV Solar Taupunkt Windben
25.07.2021 20:27 25,9 C 23,3 C 23,9 C 27,9 C 66 % 0 lf 3 cb 1007,5 hPa 0,0 mm 2,6 km/h (1 Bft) NW 321 40 min 0,177 mm 0,0 UV-I 105 W/m 19,0 C 8,0 km/h (2 Bft)
25.07.2021 19:27 28,4 C 23,3 C 25,6 C 27,9 C 52 % 0 lf 3 cb 1006,7 hPa 0,0 mm 1,8 km/h (1 Bft) O-SO 120 59 min 0,305 mm 0,6 UV-I 154 W/m 17,6 C 4,8 km/h (1 Bft)
25.07.2021 18:27 28,3 C 23,9 C 25,0 C 27,9 C 55 % 0 lf 3 cb 1006,5 hPa 0,0 mm 5,8 km/h (2 Bft) SW 224 60 min 0,330 mm 1,8 UV-I 446 W/m 18,4 C 8,0 km/h (2 Bft)
25.07.2021 17:27 27,2 C 23,9 C 25,6 C 27,9 C 59 % 0 lf 2 cb 1006,9 hPa 0,0 mm 5,4 km/h (2 Bft) S-SW 208 14 min 0,331 mm 2,7 UV-I 429 W/m 18,5 C 11,3 km/h (2 Bft)
25.07.2021 16:27 27,5 C 23,9 C 25,6 C 27,9 C 59 % 0 lf 2 cb 1007,1 hPa 0,0 mm 2,7 km/h (1 Bft) S-SW 202 35 min 0,431 mm 2,5 UV-I 742 W/m 18,8 C 4,8 km/h (1 Bft)
25.07.2021 15:27 28,1 C 24,4 C 26,1 C 27,3 C 58 % 0 lf 2 cb 1007,2 hPa 0,0 mm 4,1 km/h (1 Bft) S 186 41 min 0,483 mm 5,2 UV-I 900 W/m 19,0 C 6,4 km/h (2 Bft)
25.07.2021 14:27 26,9 C 25,6 C 26,1 C 26,8 C 61 % 0 lf 2 cb 1007,3 hPa 0,0 mm 4,4 km/h (1 Bft) O 90 34 min 0,406 mm 3,4 UV-I 266 W/m 18,7 C 8,0 km/h (2 Bft)
25.07.2021 13:27 27,0 C 25,6 C 28,9 C 26,8 C 60 % 0 lf 2 cb 1007,3 hPa 0,0 mm 8,0 km/h (2 Bft) S 169 53 min 0,534 mm 5,8 UV-I 899 W/m 18,6 C 9,7 km/h (2 Bft)
25.07.2021 12:26 26,4 C 23,9 C 28,3 C 26,2 C 65 % 0 lf 2 cb 1007,1 hPa 0,0 mm 7,3 km/h (2 Bft) SW 216 57 min 0,432 mm 5,4 UV-I 774 W/m 19,3 C 12,9 km/h (3 Bft)
25.07.2021 11:24 24,1 C 22,2 C 25,6 C -50,0 C 75 % 0 lf 2 cb 1007,2 hPa 0,0 mm 9,2 km/h (2 Bft) S-SO 161 56 min 0,304 mm 4,3 UV-I 706 W/m 19,4 C 16,1 km/h (3 Bft)
25.07.2021 10:24 20,3 C 21,1 C 26,1 C -23,8 C 94 % 0 lf 2 cb 1007,0 hPa 0,0 mm 5,2 km/h (1 Bft) SO 134 60 min 0,204 mm 3,0 UV-I 530 W/m 19,3 C 8,0 km/h (2 Bft)
25.07.2021 09:24 18,5 C 20,0 C 21,1 C -38,2 C 97 % 0 lf 2 cb 1006,9 hPa 0,0 mm 7,4 km/h (2 Bft) S 173 14 min 0,101 mm 1,8 UV-I 372 W/m 18,0 C 11,3 km/h (2 Bft)
25.07.2021 08:24 17,7 C 19,4 C 19,4 C -38,2 C 96 % 4 lf 2 cb 1006,5 hPa 0,0 mm 9,1 km/h (2 Bft) O-SO 113 2 min 0,026 mm 1,0 UV-I 220 W/m 17,1 C 14,5 km/h (3 Bft)
25.07.2021 07:24 17,1 C 18,9 C 17,2 C -38,2 C 96 % 15 lf 2 cb 1006,4 hPa 0,0 mm 3,9 km/h (1 Bft) S-SW 208 0 min 0,025 mm 0,0 UV-I 32 W/m 16,5 C 6,4 km/h (2 Bft)
25.07.2021 06:24 17,0 C 18,9 C 16,7 C -38,8 C 96 % 15 lf 2 cb 1006,0 hPa 0,2 mm 3,0 km/h (1 Bft) SO 145 24 min 0,000 mm 0,0 UV-I 37 W/m 16,4 C 8,0 km/h (2 Bft)
25.07.2021 05:22 17,2 C 19,4 C 16,7 C -38,2 C 95 % 15 lf 2 cb 1005,9 hPa 0,0 mm 2,5 km/h (1 Bft) S-SW 213 0 min 0,000 mm 0,0 UV-I 0 W/m 16,4 C 6,4 km/h (2 Bft)
25.07.2021 04:22 17,5 C 20,0 C 17,2 C -37,7 C 95 % 15 lf 2 cb 1005,8 hPa 0,0 mm 7,1 km/h (2 Bft) SW 235 0 min 0,000 mm 0,0 UV-I 0 W/m 16,7 C 9,7 km/h (2 Bft)
25.07.2021 03:22 17,9 C 20,0 C 17,8 C -39,3 C 95 % 15 lf 2 cb 1005,8 hPa 0,0 mm 7,8 km/h (2 Bft) S-SW 202 0 min 0,000 mm 0,0 UV-I 0 W/m 17,1 C 9,7 km/h (2 Bft)
25.07.2021 02:22 18,0 C 20,0 C 17,8 C -39,3 C 95 % 15 lf 2 cb 1005,6 hPa 0,4 mm 4,5 km/h (1 Bft) W-SW 256 0 min 0,000 mm 0,0 UV-I 0 W/m 17,2 C 8,0 km/h (2 Bft)
25.07.2021 01:22 18,2 C 20,6 C 18,3 C -39,9 C 94 % 15 lf 2 cb 1006,0 hPa 0,6 mm 4,9 km/h (1 Bft) W 273 0 min 0,000 mm 0,0 UV-I 0 W/m 17,2 C 6,4 km/h (2 Bft)
25.07.2021 00:22 18,6 C 20,6 C 18,3 C -40,4 C 94 % 15 lf 2 cb 1006,0 hPa 0,8 mm 7,9 km/h (2 Bft) W 270 0 min 0,000 mm 0,0 UV-I 0 W/m 17,6 C 12,9 km/h (3 Bft)
25.07.2021 00:00 18,7 C 20,6 C 18,3 C -41,0 C 94 % 15 lf 2 cb 1006,3 hPa 0,0 mm 3,4 km/h (1 Bft) NW 312 0 min 0,000 mm 0,0 UV-I 0 W/m 17,7 C 6,4 km/h (2 Bft)
_ Min-Zeit 07:15 08:10 10:06 11:31 19:18 20:27 17:50 02:44 - 19:25 - - - - - - 06:08 19:51
Minimum _ 16,9 C 18,9 C -38,3 C -50,0 C 49 % 0 lf 2 cb 1005,5 hPa - 0,1 km/h (0 Bft) - - - - - - 16,2 C 1,6 km/h (1 Bft)
_ Max-Zeit 19:30 14:28 13:03 20:27 10:04 08:05 20:27 20:27 06:16 13:08 - - 12:03 13:00 13:15 13:39 12:07 20:09
Maximum _ 28,5 C 25,6 C 29,4 C 27,9 C 97 % 15 lf 3 cb 1007,5 hPa 0,2 mm 15,7 km/h
S-SW (3 Bft)
- - 3 min 0,534 mm 6,0 UV-I 984 W/m 19,9 C 22,5 km/h
W (4 Bft)
Durchschnitt _ 22,3 C 21,8 C 22,2 C -9,2 C 79 % 6 lf 2 cb 1006,6 hPa #2,0 mm 5,3 km/h (1 Bft) S-SW - #9:12 h #4,089 mm 3,0 UV-I 419 W/m 17,9 C 9,1 km/h (2 Bft)
© 2006-2021 Nordhorn-Wetter.com